Time;durP1;ratioP1;P1;durP2;ratioP2;P2;SDS_P1;SDS_P2;PMS_P1;PMS_P2;Temp;Humidity;BMP_temperature;BMP_pressure;BME280_temperature;BME280_humidity;BME280_pressure;Samples;Min_cycle;Max_cycle;Signal;HPM_P1;HPM_P2
2023/01/29 00:08:51;;;;;;;474.25;428.52;;;;;;;20.88;nan;100991.97;20758570;28;20744;-82
2023/01/29 00:18:52;;;;;;;441.95;398.42;;;;;;;20.90;nan;101008.53;20761104;28;20052;-82
2023/01/29 00:28:55;;;;;;;434.67;392.17;;;;;;;20.85;nan;101015.91;20741514;28;20461;-82
2023/01/29 00:38:58;;;;;;;462.17;417.42;;;;;;;20.82;nan;101021.34;20744114;28;20867;-82
2023/01/29 00:48:59;;;;;;;449.37;405.57;;;;;;;20.79;nan;101026.84;20763250;28;20042;-81
2023/01/29 00:59:00;;;;;;;452.67;408.55;;;;;;;20.76;nan;101033.16;20768527;28;20120;-82
2023/01/29 01:19:20;;;;;;;500.50;453.05;;;;;;;20.70;nan;101032.66;20759999;28;21074;-82
2023/01/29 01:29:21;;;;;;;504.77;457.05;;;;;;;20.66;nan;101041.69;20744548;28;20412;-82
2023/01/29 01:39:22;;;;;;;527.67;478.15;;;;;;;20.65;nan;101043.47;20743677;28;20040;-82
2023/01/29 01:49:23;;;;;;;516.22;467.60;;;;;;;20.63;nan;101050.63;20766351;28;20393;-81
2023/01/29 01:59:26;;;;;;;567.10;515.10;;;;;;;20.58;nan;101045.66;20750523;28;20037;-82
2023/01/29 02:09:34;;;;;;;598.50;544.40;;;;;;;20.59;nan;101046.50;20756054;28;20038;-81
2023/01/29 02:19:54;;;;;;;576.33;523.67;;;;;;;20.56;nan;101058.06;20743107;28;20348;-81
2023/01/29 02:30:10;;;;;;;594.80;541.17;;;;;;;20.52;nan;101068.88;20731440;28;20065;-81
2023/01/29 02:40:24;;;;;;;528.10;478.98;;;;;;;20.51;nan;101073.31;20753395;28;20614;-81
2023/01/29 02:50:33;;;;;;;502.00;454.63;;;;;;;20.48;nan;101081.38;20750675;28;20149;-81
2023/01/29 03:00:40;;;;;;;475.98;430.15;;;;;;;20.43;nan;101086.97;20743540;28;20399;-81
2023/01/29 03:11:03;;;;;;;477.70;431.92;;;;;;;20.42;nan;101087.91;20754096;28;20524;-81
2023/01/29 03:41:55;;;;;;;416.98;376.65;;;;;;;20.32;nan;101107.81;20768822;28;20037;-81
2023/01/29 03:52:15;;;;;;;417.92;377.42;;;;;;;20.35;nan;101112.03;20765133;28;20053;-80
2023/01/29 04:02:26;;;;;;;420.40;379.63;;;;;;;20.35;nan;101107.63;20766810;28;20322;-81
2023/01/29 04:12:39;;;;;;;442.38;399.40;;;;;;;20.36;nan;101105.84;20760427;28;20042;-82
2023/01/29 04:22:46;;;;;;;413.23;373.40;;;;;;;20.34;nan;101102.47;20746298;28;20049;-80
2023/01/29 04:32:51;;;;;;;414.38;374.38;;;;;;;20.30;nan;101096.56;20748363;28;20120;-81
2023/01/29 04:42:51;;;;;;;421.55;381.00;;;;;;;20.31;nan;101106.13;20743651;28;20213;-81
2023/01/29 04:53:24;;;;;;;413.98;374.10;;;;;;;20.31;nan;101103.50;20747112;28;20137;-82
2023/01/29 05:03:28;;;;;;;397.02;358.95;;;;;;;20.32;nan;101113.06;20753561;28;20416;-81
2023/01/29 05:13:32;;;;;;;417.27;377.00;;;;;;;20.34;nan;101107.75;20754281;28;20067;-81
2023/01/29 05:23:33;;;;;;;394.48;356.52;;;;;;;20.43;nan;101104.50;20735461;28;20787;-82
2023/01/29 05:33:34;;;;;;;416.55;376.30;;;;;;;20.50;nan;101107.63;20746065;28;20515;-82
2023/01/29 05:43:36;;;;;;;388.65;351.45;;;;;;;20.56;nan;101104.59;20737771;28;20049;-82
2023/01/29 05:53:38;;;;;;;427.13;385.67;;;;;;;20.60;nan;101101.69;20742051;28;20069;-82
2023/01/29 06:03:38;;;;;;;403.05;364.25;;;;;;;20.66;nan;101104.84;20737162;28;20056;-80
2023/01/29 06:13:39;;;;;;;418.60;377.75;;;;;;;20.70;nan;101120.34;20756159;28;20540;-81
2023/01/29 06:23:40;;;;;;;443.33;400.05;;;;;;;20.76;nan;101135.78;20749963;28;20037;-81
2023/01/29 06:33:40;;;;;;;406.88;367.45;;;;;;;20.82;nan;101157.38;20743105;28;20083;-81
2023/01/29 06:43:43;;;;;;;417.30;376.55;;;;;;;20.87;nan;101174.59;20723927;28;20131;-76
2023/01/29 06:53:43;;;;;;;438.77;395.88;;;;;;;20.92;nan;101177.78;20744097;28;20048;-75
2023/01/29 07:03:49;;;;;;;461.58;416.70;;;;;;;20.98;nan;101171.25;20752302;28;20048;-76
2023/01/29 07:13:50;;;;;;;463.73;418.40;;;;;;;21.04;nan;101167.38;20757684;28;20053;-78
2023/01/29 07:23:53;;;;;;;432.50;389.75;;;;;;;21.14;nan;101165.88;20720670;28;20412;-76
2023/01/29 07:33:55;;;;;;;427.42;385.00;;;;;;;21.24;nan;101151.13;20750609;28;20053;-76
2023/01/29 07:43:57;;;;;;;446.70;402.50;;;;;;;21.34;nan;101145.28;20741187;28;20071;-83
2023/01/29 07:54:00;;;;;;;461.35;416.00;;;;;;;21.46;nan;101143.59;20762978;28;20861;-88
2023/01/29 08:04:01;;;;;;;453.98;409.02;;;;;;;21.54;nan;101147.41;20747100;28;20136;-82
2023/01/29 08:14:01;;;;;;;504.73;456.20;;;;;;;21.61;nan;101145.25;20749517;28;20065;-84
2023/01/29 08:24:02;;;;;;;497.60;449.50;;;;;;;21.67;nan;101158.00;20760147;28;20102;-77
2023/01/29 08:34:02;;;;;;;471.75;425.42;;;;;;;21.58;nan;101161.25;20741124;28;20050;-79
2023/01/29 08:44:03;;;;;;;493.10;445.35;;;;;;;21.46;nan;101185.75;20722576;28;20469;-78
2023/01/29 08:54:04;;;;;;;502.65;454.13;;;;;;;21.52;nan;101194.09;20723377;28;20038;-78
2023/01/29 09:04:04;;;;;;;531.78;481.30;;;;;;;21.54;nan;101202.72;20720779;28;20048;-78
2023/01/29 09:14:05;;;;;;;509.00;460.20;;;;;;;21.56;nan;101205.28;20719374;28;20053;-78
2023/01/29 09:24:05;;;;;;;537.88;487.23;;;;;;;21.55;nan;101208.88;20721503;28;20330;-77
2023/01/29 09:34:06;;;;;;;548.42;497.02;;;;;;;21.50;nan;101217.06;20726770;28;20049;-78
2023/01/29 09:44:23;;;;;;;1041.97;959.35;;;;;;;19.03;nan;101216.91;20718689;28;20034;-83
2023/01/29 09:54:33;;;;;;;741.20;677.25;;;;;;;20.40;nan;101221.28;20785759;28;20129;-89
2023/01/29 10:05:24;;;;;;;670.40;611.22;;;;;;;20.69;nan;101217.81;20742717;28;20073;-88
2023/01/29 10:15:34;;;;;;;626.67;570.33;;;;;;;20.85;nan;101223.84;20718279;28;20137;-89
2023/01/29 10:25:39;;;;;;;557.42;505.88;;;;;;;20.95;nan;101206.50;20772910;28;20895;-90
2023/01/29 10:35:48;;;;;;;540.53;490.00;;;;;;;21.02;nan;101211.38;20754387;28;20041;-91
2023/01/29 10:46:19;;;;;;;517.08;468.13;;;;;;;21.07;nan;101206.69;20747678;28;20509;-89
2023/01/29 10:56:35;;;;;;;527.72;478.02;;;;;;;21.10;nan;101194.19;20752071;28;20536;-86
2023/01/29 11:06:39;;;;;;;495.33;447.70;;;;;;;21.18;nan;101175.25;20758346;28;20049;-84
2023/01/29 11:16:45;;;;;;;524.40;474.67;;;;;;;21.20;nan;101181.25;20746380;28;20044;-84
2023/01/29 11:26:48;;;;;;;512.45;463.63;;;;;;;21.30;nan;101151.66;20749776;28;20069;-83
2023/01/29 11:37:03;;;;;;;512.58;463.60;;;;;;;21.39;nan;101145.81;20760323;28;20042;-83
2023/01/29 11:47:24;;;;;;;516.00;466.20;;;;;;;21.47;nan;101125.06;20762283;28;20053;-83
2023/01/29 11:57:40;;;;;;;511.83;462.60;;;;;;;21.54;nan;101105.22;20731927;28;20049;-84
2023/01/29 12:07:47;;;;;;;485.63;438.05;;;;;;;21.58;nan;101108.53;20741698;28;20512;-84
2023/01/29 12:17:58;;;;;;;468.08;421.77;;;;;;;21.59;nan;101103.19;20731396;28;20630;-83
2023/01/29 12:28:33;;;;;;;490.73;442.80;;;;;;;21.61;nan;101097.81;20764833;28;20041;-83
2023/01/29 12:38:35;;;;;;;526.60;476.42;;;;;;;21.60;nan;101096.09;20753032;28;20058;-84
2023/01/29 12:48:41;;;;;;;517.10;467.48;;;;;;;21.60;nan;101090.84;20751402;28;20045;-84
2023/01/29 12:58:46;;;;;;;509.92;460.98;;;;;;;21.59;nan;101090.00;20744615;28;20049;-83
2023/01/29 13:08:53;;;;;;;513.60;464.63;;;;;;;21.59;nan;101073.34;20746600;28;20045;-78
2023/01/29 13:19:01;;;;;;;446.52;401.98;;;;;;;21.58;nan;101047.94;20744335;28;20045;-76
2023/01/29 13:29:04;;;;;;;474.05;427.55;;;;;;;21.62;nan;101027.47;20737356;28;20038;-77
2023/01/29 13:39:19;;;;;;;;;;;;;;;21.63;nan;101032.66;20732557;28;20060;-81
2023/01/29 13:49:32;;;;;;;469.70;423.70;;;;;;;21.62;nan;101040.66;20733854;28;19933;-82
2023/01/29 13:59:54;;;;;;;485.15;438.35;;;;;;;21.61;nan;101031.09;20744013;28;20163;-77
2023/01/29 14:10:12;;;;;;;481.50;434.88;;;;;;;21.65;nan;101035.19;20748734;28;20049;-87
2023/01/29 14:20:19;;;;;;;420.48;379.00;;;;;;;21.32;nan;101052.31;20737079;28;20042;-81
2023/01/29 14:30:22;;;;;;;404.35;364.70;;;;;;;21.51;nan;101044.84;20741321;28;20400;-80
2023/01/29 14:40:26;;;;;;;382.05;344.70;;;;;;;21.59;nan;101050.47;20746979;28;20429;-85
2023/01/29 14:50:33;;;;;;;415.63;374.55;;;;;;;21.63;nan;101056.38;20740588;28;20068;-79
2023/01/29 15:00:37;;;;;;;416.38;374.83;;;;;;;21.63;nan;101050.25;20744535;28;20049;-80
2023/01/29 15:21:14;;;;;;;399.20;360.00;;;;;;;21.65;nan;101043.09;20778904;28;20053;-76
2023/01/29 15:31:17;;;;;;;387.97;349.53;;;;;;;21.62;nan;101038.88;20751251;28;20445;-77
2023/01/29 15:41:19;;;;;;;;;;;;;;;21.58;nan;101046.16;20763497;28;20132;-79
2023/01/29 15:51:23;;;;;;;393.08;354.63;;;;;;;21.58;nan;101050.56;20752045;28;20897;-82
2023/01/29 16:01:28;;;;;;;416.58;375.48;;;;;;;21.54;nan;101043.78;20730309;28;20046;-77
2023/01/29 16:11:31;;;;;;;428.17;385.55;;;;;;;21.49;nan;101059.91;20745174;28;20191;-87
2023/01/29 16:21:38;;;;;;;418.65;377.48;;;;;;;21.47;nan;101059.19;20770243;28;20498;-84
2023/01/29 16:31:42;;;;;;;425.00;383.00;;;;;;;21.39;nan;101072.03;20778330;28;20041;-91
2023/01/29 16:41:43;;;;;;;440.63;397.27;;;;;;;21.35;nan;101087.22;20778082;28;20582;-88
2023/01/29 16:51:44;;;;;;;434.58;391.92;;;;;;;21.32;nan;101097.09;20759567;28;20045;-85
2023/01/29 17:01:45;;;;;;;423.15;381.40;;;;;;;21.31;nan;101093.59;20756400;28;20764;-78
2023/01/29 17:11:49;;;;;;;412.02;371.35;;;;;;;21.27;nan;101087.69;20742242;28;20776;-77
2023/01/29 17:21:50;;;;;;;439.35;396.05;;;;;;;21.24;nan;101085.28;20749313;28;20050;-78
2023/01/29 17:31:52;;;;;;;391.73;353.58;;;;;;;21.22;nan;101078.44;20745147;28;20508;-78
2023/01/29 17:41:56;;;;;;;425.07;382.40;;;;;;;21.20;nan;101054.84;20771499;28;20041;-79
2023/01/29 17:51:57;;;;;;;429.63;387.42;;;;;;;21.20;nan;101051.34;20769092;28;20075;-78
2023/01/29 18:02:08;;;;;;;459.38;414.55;;;;;;;21.19;nan;101039.13;20738751;28;20475;-80
2023/01/29 18:12:10;;;;;;;448.35;404.17;;;;;;;21.23;nan;101038.81;20733962;28;20060;-77
2023/01/29 18:22:12;;;;;;;471.70;425.63;;;;;;;21.28;nan;101039.34;20747695;28;20120;-80
2023/01/29 18:32:13;;;;;;;449.88;405.42;;;;;;;21.33;nan;101017.13;20744132;28;20168;-80
2023/01/29 18:42:16;;;;;;;488.17;440.95;;;;;;;21.41;nan;101022.69;20740062;28;20121;-81
2023/01/29 18:52:17;;;;;;;487.33;439.85;;;;;;;21.51;nan;101018.50;20719711;28;20043;-77
2023/01/29 19:02:18;;;;;;;501.80;452.98;;;;;;;21.56;nan;101012.91;20696696;28;20052;-74
2023/01/29 19:12:19;;;;;;;483.83;436.30;;;;;;;21.53;nan;101026.28;20684740;28;20480;-74
2023/01/29 19:22:20;;;;;;;491.17;443.25;;;;;;;21.43;nan;101015.53;20708731;28;20542;-75
2023/01/29 19:32:21;;;;;;;463.02;417.50;;;;;;;21.31;nan;101027.75;20699088;28;20037;-85
2023/01/29 19:42:26;;;;;;;473.55;427.40;;;;;;;21.23;nan;101011.66;20779220;28;20092;-88
2023/01/29 19:52:32;;;;;;;498.17;450.48;;;;;;;21.14;nan;101010.50;20796175;28;20735;-87
2023/01/29 20:02:33;;;;;;;486.17;439.15;;;;;;;21.11;nan;101015.94;20772735;28;20038;-77
2023/01/29 20:12:34;;;;;;;517.28;468.45;;;;;;;21.08;nan;101008.25;20757537;28;20050;-77
2023/01/29 20:22:35;;;;;;;503.90;455.95;;;;;;;21.10;nan;100993.19;20766764;28;20500;-77
2023/01/29 20:32:39;;;;;;;516.30;467.38;;;;;;;21.03;nan;100978.75;20758906;28;20046;-80
2023/01/29 20:42:40;;;;;;;511.00;462.77;;;;;;;20.90;nan;100979.56;20741010;28;20464;-76
2023/01/29 20:52:42;;;;;;;553.75;502.42;;;;;;;20.93;nan;100983.78;20757455;28;20045;-77
2023/01/29 21:02:44;;;;;;;544.07;493.37;;;;;;;20.89;nan;100988.41;20758516;28;20436;-77
2023/01/29 21:12:45;;;;;;;541.67;491.10;;;;;;;20.87;nan;100992.97;20726929;28;20068;-77
2023/01/29 21:22:48;;;;;;;562.00;510.37;;;;;;;20.84;nan;101010.75;20727858;28;20038;-76
2023/01/29 21:32:48;;;;;;;555.45;504.02;;;;;;;20.79;nan;101013.66;20727918;28;20267;-77
2023/01/29 21:53:10;;;;;;;500.58;453.02;;;;;;;20.78;nan;101004.09;20745037;28;20058;-76
2023/01/29 22:03:10;;;;;;;523.70;474.40;;;;;;;20.74;nan;100994.72;20735019;28;20064;-76
2023/01/29 22:13:11;;;;;;;585.05;532.13;;;;;;;20.70;nan;100982.66;20742689;28;20527;-78
2023/01/29 22:23:12;;;;;;;550.10;499.30;;;;;;;20.68;nan;100964.34;20741340;28;20055;-78
2023/01/29 22:33:12;;;;;;;574.80;522.47;;;;;;;20.65;nan;100954.00;20724286;28;20069;-76
2023/01/29 22:43:12;;;;;;;548.92;498.05;;;;;;;20.61;nan;100942.84;20744225;28;20041;-76
2023/01/29 22:53:13;;;;;;;592.53;538.92;;;;;;;20.59;nan;100928.09;20736535;28;20037;-74
2023/01/29 23:03:13;;;;;;;583.42;530.53;;;;;;;20.57;nan;100930.84;20719865;28;20045;-75
2023/01/29 23:13:14;;;;;;;575.88;523.45;;;;;;;20.52;nan;100925.03;20745119;28;20084;-74
2023/01/29 23:23:14;;;;;;;614.55;559.55;;;;;;;20.52;nan;100924.19;20760519;28;20055;-74
2023/01/29 23:33:16;;;;;;;614.35;559.33;;;;;;;20.47;nan;100899.03;20733838;28;25376;-74
2023/01/29 23:43:18;;;;;;;625.33;569.63;;;;;;;20.46;nan;100896.50;20755276;28;20037;-86
2023/01/29 23:53:19;;;;;;;620.20;564.83;;;;;;;20.44;nan;100888.69;20755136;28;20054;-86
